<?xml version="1.0" encoding="UTF-8" standalone="no" ?>
<gpx xmlns="http://www.topografix.com/GPX/1/1" xmlns:xsi="http://www.w3.org/2001/XMLSchema-instance" xsi:schemaLocation="http://www.topografix.com/GPX/1/1 http://www.topografix.com/GPX/1/1/gpx.xsd" version="1.1" creator="VisuGPX - https://www.visugpx.com">
  <metadata>
    <name>[BASE Jump] Piz da Lech</name>
    <desc><![CDATA[A n'utiliser qu'avec un wingsuit et un parachute !]]></desc>
  </metadata>
  <wpt lat="46.52674" lon="11.84096">
    <ele>2845.3</ele>
    <name><![CDATA[Exit]]></name>
    <desc><![CDATA[Vitesse: 0,29 km/h
Altitude: 2964 m
Durée depuis le départ: 00:56:57
Distance depuis le départ: 2,22 km]]></desc>
  </wpt>
  <trk>
    <name><![CDATA[Piz da Lech]]></name>
    <desc><![CDATA[

]]></desc>
    <extensions>
      <line xmlns="http://www.topografix.com/GPX/gpx_style/0/2">
        <color>0000FF</color>
        <width>4</width>
      </line>
    </extensions>
    <trkseg>
      <trkpt lat="46.52249" lon="11.84949">
        <ele>2577.5</ele>
        <time>2023-07-28T07:15:57Z</time>
      </trkpt>
      <trkpt lat="46.5225" lon="11.84949">
        <ele>2577.8</ele>
        <time>2023-07-28T07:15:58Z</time>
      </trkpt>
      <trkpt lat="46.5225" lon="11.84949">
        <ele>2577.7</ele>
        <time>2023-07-28T07:15:59Z</time>
      </trkpt>
      <trkpt lat="46.52251" lon="11.84949">
        <ele>2577.8</ele>
        <time>2023-07-28T07:16:00Z</time>
      </trkpt>
      <trkpt lat="46.52252" lon="11.84949">
        <ele>2577.7</ele>
        <time>2023-07-28T07:16:01Z</time>
      </trkpt>
      <trkpt lat="46.52254" lon="11.84949">
        <ele>2578.5</ele>
        <time>2023-07-28T07:16:03Z</time>
      </trkpt>
      <trkpt lat="46.52255" lon="11.84949">
        <ele>2578.5</ele>
        <time>2023-07-28T07:16:05Z</time>
      </trkpt>
      <trkpt lat="46.52257" lon="11.8495">
        <ele>2578.3</ele>
        <time>2023-07-28T07:16:06Z</time>
      </trkpt>
      <trkpt lat="46.52258" lon="11.8495">
        <ele>2577.6</ele>
        <time>2023-07-28T07:16:07Z</time>
      </trkpt>
      <trkpt lat="46.52259" lon="11.8495">
        <ele>2577.3</ele>
        <time>2023-07-28T07:16:08Z</time>
      </trkpt>
      <trkpt lat="46.5226" lon="11.8495">
        <ele>2577</ele>
        <time>2023-07-28T07:16:09Z</time>
      </trkpt>
      <trkpt lat="46.52262" lon="11.8495">
        <ele>2577.8</ele>
        <time>2023-07-28T07:16:11Z</time>
      </trkpt>
      <trkpt lat="46.52263" lon="11.8495">
        <ele>2577.4</ele>
        <time>2023-07-28T07:16:12Z</time>
      </trkpt>
      <trkpt lat="46.52265" lon="11.84949">
        <ele>2576.9</ele>
        <time>2023-07-28T07:16:14Z</time>
      </trkpt>
      <trkpt lat="46.52266" lon="11.84949">
        <ele>2576.3</ele>
        <time>2023-07-28T07:16:16Z</time>
      </trkpt>
      <trkpt lat="46.52268" lon="11.84948">
        <ele>2575.6</ele>
        <time>2023-07-28T07:16:18Z</time>
      </trkpt>
      <trkpt lat="46.52269" lon="11.84949">
        <ele>2575.3</ele>
        <time>2023-07-28T07:16:20Z</time>
      </trkpt>
      <trkpt lat="46.5227" lon="11.84948">
        <ele>2575.3</ele>
        <time>2023-07-28T07:16:22Z</time>
      </trkpt>
      <trkpt lat="46.52271" lon="11.84947">
        <ele>2575.2</ele>
        <time>2023-07-28T07:16:23Z</time>
      </trkpt>
      <trkpt lat="46.52272" lon="11.84945">
        <ele>2575.4</ele>
        <time>2023-07-28T07:16:25Z</time>
      </trkpt>
      <trkpt lat="46.52273" lon="11.84943">
        <ele>2575.9</ele>
        <time>2023-07-28T07:16:27Z</time>
      </trkpt>
      <trkpt lat="46.52273" lon="11.84942">
        <ele>2576.5</ele>
        <time>2023-07-28T07:16:29Z</time>
      </trkpt>
      <trkpt lat="46.52274" lon="11.84941">
        <ele>2577</ele>
        <time>2023-07-28T07:16:31Z</time>
      </trkpt>
      <trkpt lat="46.52275" lon="11.84939">
        <ele>2577</ele>
        <time>2023-07-28T07:16:33Z</time>
      </trkpt>
      <trkpt lat="46.52275" lon="11.84936">
        <ele>2577.2</ele>
        <time>2023-07-28T07:16:35Z</time>
      </trkpt>
      <trkpt lat="46.52276" lon="11.84935">
        <ele>2578</ele>
        <time>2023-07-28T07:16:37Z</time>
      </trkpt>
      <trkpt lat="46.52278" lon="11.84934">
        <ele>2578.6</ele>
        <time>2023-07-28T07:16:39Z</time>
      </trkpt>
      <trkpt lat="46.52279" lon="11.84934">
        <ele>2579.3</ele>
        <time>2023-07-28T07:16:41Z</time>
      </trkpt>
      <trkpt lat="46.5228" lon="11.84934">
        <ele>2579.3</ele>
        <time>2023-07-28T07:16:42Z</time>
      </trkpt>
      <trkpt lat="46.52281" lon="11.84933">
        <ele>2579.8</ele>
        <time>2023-07-28T07:16:44Z</time>
      </trkpt>
      <trkpt lat="46.52282" lon="11.84932">
        <ele>2579.7</ele>
        <time>2023-07-28T07:16:45Z</time>
      </trkpt>
      <trkpt lat="46.52283" lon="11.84931">
        <ele>2579.7</ele>
        <time>2023-07-28T07:16:46Z</time>
      </trkpt>
      <trkpt lat="46.52284" lon="11.8493">
        <ele>2579.9</ele>
        <time>2023-07-28T07:16:47Z</time>
      </trkpt>
      <trkpt lat="46.52285" lon="11.84929">
        <ele>2580.3</ele>
        <time>2023-07-28T07:16:48Z</time>
      </trkpt>
      <trkpt lat="46.52286" lon="11.84928">
        <ele>2581.1</ele>
        <time>2023-07-28T07:16:50Z</time>
      </trkpt>
      <trkpt lat="46.52288" lon="11.84928">
        <ele>2581.4</ele>
        <time>2023-07-28T07:16:52Z</time>
      </trkpt>
      <trkpt lat="46.52289" lon="11.84927">
        <ele>2581.4</ele>
        <time>2023-07-28T07:16:55Z</time>
      </trkpt>
      <trkpt lat="46.5229" lon="11.84926">
        <ele>2581.2</ele>
        <time>2023-07-28T07:16:56Z</time>
      </trkpt>
      <trkpt lat="46.52291" lon="11.84926">
        <ele>2581.1</ele>
        <time>2023-07-28T07:16:57Z</time>
      </trkpt>
      <trkpt lat="46.52293" lon="11.84926">
        <ele>2580.9</ele>
        <time>2023-07-28T07:16:59Z</time>
      </trkpt>
      <trkpt lat="46.52294" lon="11.84925">
        <ele>2580.8</ele>
        <time>2023-07-28T07:17:00Z</time>
      </trkpt>
      <trkpt lat="46.52295" lon="11.84924">
        <ele>2581.1</ele>
        <time>2023-07-28T07:17:01Z</time>
      </trkpt>
      <trkpt lat="46.52296" lon="11.84924">
        <ele>2581.2</ele>
        <time>2023-07-28T07:17:03Z</time>
      </trkpt>
      <trkpt lat="46.52298" lon="11.84922">
        <ele>2581</ele>
        <time>2023-07-28T07:17:05Z</time>
      </trkpt>
      <trkpt lat="46.52298" lon="11.84921">
        <ele>2580.9</ele>
        <time>2023-07-28T07:17:06Z</time>
      </trkpt>
      <trkpt lat="46.52299" lon="11.84921">
        <ele>2580.7</ele>
        <time>2023-07-28T07:17:07Z</time>
      </trkpt>
      <trkpt lat="46.523" lon="11.8492">
        <ele>2580.4</ele>
        <time>2023-07-28T07:17:09Z</time>
      </trkpt>
      <trkpt lat="46.52301" lon="11.8492">
        <ele>2580.7</ele>
        <time>2023-07-28T07:17:11Z</time>
      </trkpt>
      <trkpt lat="46.52303" lon="11.84919">
        <ele>2580.3</ele>
        <time>2023-07-28T07:17:13Z</time>
      </trkpt>
      <trkpt lat="46.52305" lon="11.84919">
        <ele>2580.7</ele>
        <time>2023-07-28T07:17:15Z</time>
      </trkpt>
      <trkpt lat="46.52306" lon="11.84918">
        <ele>2580.7</ele>
        <time>2023-07-28T07:17:16Z</time>
      </trkpt>
      <trkpt lat="46.52307" lon="11.84917">
        <ele>2580.8</ele>
        <time>2023-07-28T07:17:17Z</time>
      </trkpt>
      <trkpt lat="46.52307" lon="11.84917">
        <ele>2580.7</ele>
        <time>2023-07-28T07:17:18Z</time>
      </trkpt>
      <trkpt lat="46.52309" lon="11.84915">
        <ele>2581</ele>
        <time>2023-07-28T07:17:20Z</time>
      </trkpt>
      <trkpt lat="46.5231" lon="11.84913">
        <ele>2581.2</ele>
        <time>2023-07-28T07:17:22Z</time>
      </trkpt>
      <trkpt lat="46.5231" lon="11.84911">
        <ele>2581.6</ele>
        <time>2023-07-28T07:17:24Z</time>
      </trkpt>
      <trkpt lat="46.52311" lon="11.8491">
        <ele>2581.5</ele>
        <time>2023-07-28T07:17:25Z</time>
      </trkpt>
      <trkpt lat="46.52313" lon="11.84909">
        <ele>2580.8</ele>
        <time>2023-07-28T07:17:27Z</time>
      </trkpt>
      <trkpt lat="46.52314" lon="11.84909">
        <ele>2580.8</ele>
        <time>2023-07-28T07:17:28Z</time>
      </trkpt>
      <trkpt lat="46.52315" lon="11.84908">
        <ele>2580.7</ele>
        <time>2023-07-28T07:17:29Z</time>
      </trkpt>
      <trkpt lat="46.52316" lon="11.84907">
        <ele>2580.4</ele>
        <time>2023-07-28T07:17:31Z</time>
      </trkpt>
      <trkpt lat="46.52317" lon="11.84905">
        <ele>2580.5</ele>
        <time>2023-07-28T07:17:33Z</time>
      </trkpt>
      <trkpt lat="46.52319" lon="11.84903">
        <ele>2580.4</ele>
        <time>2023-07-28T07:17:35Z</time>
      </trkpt>
      <trkpt lat="46.5232" lon="11.84901">
        <ele>2580.1</ele>
        <time>2023-07-28T07:17:37Z</time>
      </trkpt>
      <trkpt lat="46.52321" lon="11.849">
        <ele>2579.8</ele>
        <time>2023-07-28T07:17:38Z</time>
      </trkpt>
      <trkpt lat="46.52321" lon="11.84898">
        <ele>2579.7</ele>
        <time>2023-07-28T07:17:39Z</time>
      </trkpt>
      <trkpt lat="46.52321" lon="11.84896">
        <ele>2579.8</ele>
        <time>2023-07-28T07:17:40Z</time>
      </trkpt>
      <trkpt lat="46.52322" lon="11.84894">
        <ele>2579.9</ele>
        <time>2023-07-28T07:17:42Z</time>
      </trkpt>
      <trkpt lat="46.52323" lon="11.84893">
        <ele>2579.9</ele>
        <time>2023-07-28T07:17:43Z</time>
      </trkpt>
      <trkpt lat="46.52324" lon="11.84893">
        <ele>2580</ele>
        <time>2023-07-28T07:17:44Z</time>
      </trkpt>
      <trkpt lat="46.52325" lon="11.84892">
        <ele>2579.9</ele>
        <time>2023-07-28T07:17:45Z</time>
      </trkpt>
      <trkpt lat="46.52326" lon="11.84891">
        <ele>2580.1</ele>
        <time>2023-07-28T07:17:46Z</time>
      </trkpt>
      <trkpt lat="46.52326" lon="11.8489">
        <ele>2580.2</ele>
        <time>2023-07-28T07:17:47Z</time>
      </trkpt>
      <trkpt lat="46.52327" lon="11.84888">
        <ele>2580.5</ele>
        <time>2023-07-28T07:17:49Z</time>
      </trkpt>
      <trkpt lat="46.52328" lon="11.84888">
        <ele>2580.2</ele>
        <time>2023-07-28T07:17:51Z</time>
      </trkpt>
      <trkpt lat="46.5233" lon="11.84889">
        <ele>2579.9</ele>
        <time>2023-07-28T07:17:53Z</time>
      </trkpt>
      <trkpt lat="46.52331" lon="11.8489">
        <ele>2579.4</ele>
        <time>2023-07-28T07:17:55Z</time>
      </trkpt>
      <trkpt lat="46.52332" lon="11.8489">
        <ele>2578.5</ele>
        <time>2023-07-28T07:17:57Z</time>
      </trkpt>
      <trkpt lat="46.52333" lon="11.8489">
        <ele>2578.6</ele>
        <time>2023-07-28T07:17:59Z</time>
      </trkpt>
      <trkpt lat="46.52335" lon="11.8489">
        <ele>2579.1</ele>
        <time>2023-07-28T07:18:01Z</time>
      </trkpt>
      <trkpt lat="46.52336" lon="11.84889">
        <ele>2578.9</ele>
        <time>2023-07-28T07:18:03Z</time>
      </trkpt>
      <trkpt lat="46.52338" lon="11.84888">
        <ele>2578.6</ele>
        <time>2023-07-28T07:18:05Z</time>
      </trkpt>
      <trkpt lat="46.52339" lon="11.84887">
        <ele>2578.7</ele>
        <time>2023-07-28T07:18:07Z</time>
      </trkpt>
      <trkpt lat="46.5234" lon="11.84887">
        <ele>2578.7</ele>
        <time>2023-07-28T07:18:08Z</time>
      </trkpt>
      <trkpt lat="46.52342" lon="11.84886">
        <ele>2578.7</ele>
        <time>2023-07-28T07:18:10Z</time>
      </trkpt>
      <trkpt lat="46.52343" lon="11.84886">
        <ele>2579</ele>
        <time>2023-07-28T07:18:11Z</time>
      </trkpt>
      <trkpt lat="46.52344" lon="11.84885">
        <ele>2579.2</ele>
        <time>2023-07-28T07:18:12Z</time>
      </trkpt>
      <trkpt lat="46.52345" lon="11.84883">
        <ele>2580.3</ele>
        <time>2023-07-28T07:18:14Z</time>
      </trkpt>
      <trkpt lat="46.52347" lon="11.84881">
        <ele>2581.3</ele>
        <time>2023-07-28T07:18:16Z</time>
      </trkpt>
      <trkpt lat="46.52348" lon="11.84879">
        <ele>2581.8</ele>
        <time>2023-07-28T07:18:18Z</time>
      </trkpt>
      <trkpt lat="46.52349" lon="11.84878">
        <ele>2582</ele>
        <time>2023-07-28T07:18:19Z</time>
      </trkpt>
      <trkpt lat="46.5235" lon="11.84878">
        <ele>2582.4</ele>
        <time>2023-07-28T07:18:20Z</time>
      </trkpt>
      <trkpt lat="46.52351" lon="11.84877">
        <ele>2582.8</ele>
        <time>2023-07-28T07:18:21Z</time>
      </trkpt>
      <trkpt lat="46.52352" lon="11.84876">
        <ele>2583.1</ele>
        <time>2023-07-28T07:18:22Z</time>
      </trkpt>
      <trkpt lat="46.52353" lon="11.84876">
        <ele>2583.4</ele>
        <time>2023-07-28T07:18:23Z</time>
      </trkpt>
      <trkpt lat="46.52354" lon="11.84876">
        <ele>2583.6</ele>
        <time>2023-07-28T07:18:24Z</time>
      </trkpt>
      <trkpt lat="46.52356" lon="11.84876">
        <ele>2583.1</ele>
        <time>2023-07-28T07:18:26Z</time>
      </trkpt>
      <trkpt lat="46.52358" lon="11.84877">
        <ele>2582.4</ele>
        <time>2023-07-28T07:18:28Z</time>
      </trkpt>
      <trkpt lat="46.52359" lon="11.84877">
        <ele>2582.4</ele>
        <time>2023-07-28T07:18:30Z</time>
      </trkpt>
      <trkpt lat="46.5236" lon="11.84878">
        <ele>2582.6</ele>
        <time>2023-07-28T07:18:31Z</time>
      </trkpt>
      <trkpt lat="46.52361" lon="11.84877">
        <ele>2582.7</ele>
        <time>2023-07-28T07:18:32Z</time>
      </trkpt>
      <trkpt lat="46.52362" lon="11.84877">
        <ele>2582.6</ele>
        <time>2023-07-28T07:18:34Z</time>
      </trkpt>
      <trkpt lat="46.52363" lon="11.84877">
        <ele>2582.7</ele>
        <time>2023-07-28T07:18:35Z</time>
      </trkpt>
      <trkpt lat="46.52364" lon="11.84877">
        <ele>2582.9</ele>
        <time>2023-07-28T07:18:36Z</time>
      </trkpt>
      <trkpt lat="46.52366" lon="11.84877">
        <ele>2583.1</ele>
        <time>2023-07-28T07:18:38Z</time>
      </trkpt>
      <trkpt lat="46.52368" lon="11.84876">
        <ele>2584</ele>
        <time>2023-07-28T07:18:40Z</time>
      </trkpt>
      <trkpt lat="46.52369" lon="11.84875">
        <ele>2584.2</ele>
        <time>2023-07-28T07:18:41Z</time>
      </trkpt>
      <trkpt lat="46.5237" lon="11.84875">
        <ele>2585.1</ele>
        <time>2023-07-28T07:18:42Z</time>
      </trkpt>
      <trkpt lat="46.52371" lon="11.84874">
        <ele>2585.4</ele>
        <time>2023-07-28T07:18:43Z</time>
      </trkpt>
      <trkpt lat="46.52372" lon="11.84873">
        <ele>2585.7</ele>
        <time>2023-07-28T07:18:44Z</time>
      </trkpt>
      <trkpt lat="46.52373" lon="11.84872">
        <ele>2586</ele>
        <time>2023-07-28T07:18:45Z</time>
      </trkpt>
      <trkpt lat="46.52373" lon="11.84871">
        <ele>2586.2</ele>
        <time>2023-07-28T07:18:46Z</time>
      </trkpt>
      <trkpt lat="46.52374" lon="11.8487">
        <ele>2586.5</ele>
        <time>2023-07-28T07:18:47Z</time>
      </trkpt>
      <trkpt lat="46.52376" lon="11.84869">
        <ele>2587</ele>
        <time>2023-07-28T07:18:49Z</time>
      </trkpt>
      <trkpt lat="46.52376" lon="11.84867">
        <ele>2587.1</ele>
        <time>2023-07-28T07:18:50Z</time>
      </trkpt>
      <trkpt lat="46.52377" lon="11.84866">
        <ele>2587.7</ele>
        <time>2023-07-28T07:18:52Z</time>
      </trkpt>
      <trkpt lat="46.52379" lon="11.84865">
        <ele>2588.1</ele>
        <time>2023-07-28T07:18:54Z</time>
      </trkpt>
      <trkpt lat="46.5238" lon="11.84864">
        <ele>2588.2</ele>
        <time>2023-07-28T07:18:55Z</time>
      </trkpt>
      <trkpt lat="46.52381" lon="11.84864">
        <ele>2587.8</ele>
        <time>2023-07-28T07:18:56Z</time>
      </trkpt>
      <trkpt lat="46.52382" lon="11.84863">
        <ele>2587.9</ele>
        <time>2023-07-28T07:18:57Z</time>
      </trkpt>
      <trkpt lat="46.52383" lon="11.84862">
        <ele>2587.5</ele>
        <time>2023-07-28T07:18:59Z</time>
      </trkpt>
      <trkpt lat="46.52383" lon="11.84861">
        <ele>2587.3</ele>
        <time>2023-07-28T07:19:00Z</time>
      </trkpt>
      <trkpt lat="46.52384" lon="11.8486">
        <ele>2587.2</ele>
        <time>2023-07-28T07:19:01Z</time>
      </trkpt>
      <trkpt lat="46.52386" lon="11.84858">
        <ele>2586.9</ele>
        <time>2023-07-28T07:19:03Z</time>
      </trkpt>
      <trkpt lat="46.52386" lon="11.84857">
        <ele>2586.8</ele>
        <time>2023-07-28T07:19:04Z</time>
      </trkpt>
      <trkpt lat="46.52387" lon="11.84858">
        <ele>2587</ele>
        <time>2023-07-28T07:19:05Z</time>
      </trkpt>
      <trkpt lat="46.52389" lon="11.84858">
        <ele>2587.1</ele>
        <time>2023-07-28T07:19:06Z</time>
      </trkpt>
      <trkpt lat="46.5239" lon="11.84857">
        <ele>2587.4</ele>
        <time>2023-07-28T07:19:07Z</time>
      </trkpt>
      <trkpt lat="46.52391" lon="11.84857">
        <ele>2587.6</ele>
        <time>2023-07-28T07:19:08Z</time>
      </trkpt>
      <trkpt lat="46.52391" lon="11.84856">
        <ele>2587.7</ele>
        <time>2023-07-28T07:19:09Z</time>
      </trkpt>
      <trkpt lat="46.52393" lon="11.84854">
        <ele>2587.6</ele>
        <time>2023-07-28T07:19:10Z</time>
      </trkpt>
      <trkpt lat="46.52393" lon="11.84853">
        <ele>2587.2</ele>
        <time>2023-07-28T07:19:11Z</time>
      </trkpt>
      <trkpt lat="46.52394" lon="11.84852">
        <ele>2586.5</ele>
        <time>2023-07-28T07:19:12Z</time>
      </trkpt>
      <trkpt lat="46.52395" lon="11.84851">
        <ele>2586.5</ele>
        <time>2023-07-28T07:19:14Z</time>
      </trkpt>
      <trkpt lat="46.52397" lon="11.8485">
        <ele>2586.1</ele>
        <time>2023-07-28T07:19:16Z</time>
      </trkpt>
      <trkpt lat="46.52398" lon="11.84849">
        <ele>2585.4</ele>
        <time>2023-07-28T07:19:18Z</time>
      </trkpt>
      <trkpt lat="46.52399" lon="11.84848">
        <ele>2585</ele>
        <time>2023-07-28T07:19:19Z</time>
      </trkpt>
      <trkpt lat="46.524" lon="11.84847">
        <ele>2584.5</ele>
        <time>2023-07-28T07:19:20Z</time>
      </trkpt>
      <trkpt lat="46.524" lon="11.84845">
        <ele>2583</ele>
        <time>2023-07-28T07:19:22Z</time>
      </trkpt>
      <trkpt lat="46.52402" lon="11.84843">
        <ele>2582.1</ele>
        <time>2023-07-28T07:19:24Z</time>
      </trkpt>
      <trkpt lat="46.52403" lon="11.84842">
        <ele>2581.5</ele>
        <time>2023-07-28T07:19:25Z</time>
      </trkpt>
      <trkpt lat="46.52404" lon="11.84841">
        <ele>2581.2</ele>
        <time>2023-07-28T07:19:26Z</time>
      </trkpt>
      <trkpt lat="46.52405" lon="11.84839">
        <ele>2580.5</ele>
        <time>2023-07-28T07:19:27Z</time>
      </trkpt>
      <trkpt lat="46.52406" lon="11.84838">
        <ele>2579.7</ele>
        <time>2023-07-28T07:19:28Z</time>
      </trkpt>
      <trkpt lat="46.52407" lon="11.84837">
        <ele>2579.5</ele>
        <time>2023-07-28T07:19:29Z</time>
      </trkpt>
      <trkpt lat="46.52408" lon="11.84836">
        <ele>2579.4</ele>
        <time>2023-07-28T07:19:30Z</time>
      </trkpt>
      <trkpt lat="46.52409" lon="11.84835">
        <ele>2579.1</ele>
        <time>2023-07-28T07:19:31Z</time>
      </trkpt>
      <trkpt lat="46.5241" lon="11.84834">
        <ele>2579</ele>
        <time>2023-07-28T07:19:32Z</time>
      </trkpt>
      <trkpt lat="46.52411" lon="11.84833">
        <ele>2578.6</ele>
        <time>2023-07-28T07:19:33Z</time>
      </trkpt>
      <trkpt lat="46.52412" lon="11.84831">
        <ele>2578.3</ele>
        <time>2023-07-28T07:19:34Z</time>
      </trkpt>
      <trkpt lat="46.52413" lon="11.8483">
        <ele>2577.9</ele>
        <time>2023-07-28T07:19:35Z</time>
      </trkpt>
      <trkpt lat="46.52414" lon="11.84828">
        <ele>2577.5</ele>
        <time>2023-07-28T07:19:36Z</time>
      </trkpt>
      <trkpt lat="46.52415" lon="11.84826">
        <ele>2576.6</ele>
        <time>2023-07-28T07:19:37Z</time>
      </trkpt>
      <trkpt lat="46.52415" lon="11.84825">
        <ele>2576.5</ele>
        <time>2023-07-28T07:19:38Z</time>
      </trkpt>
      <trkpt lat="46.52416" lon="11.84825">
        <ele>2576.1</ele>
        <time>2023-07-28T07:19:39Z</time>
      </trkpt>
      <trkpt lat="46.52417" lon="11.84824">
        <ele>2575.8</ele>
        <time>2023-07-28T07:19:40Z</time>
      </trkpt>
      <trkpt lat="46.52417" lon="11.84822">
        <ele>2575.5</ele>
        <time>2023-07-28T07:19:42Z</time>
      </trkpt>
      <trkpt lat="46.52418" lon="11.8482">
        <ele>2575.5</ele>
        <time>2023-07-28T07:19:44Z</time>
      </trkpt>
      <trkpt lat="46.52418" lon="11.84818">
        <ele>2575.8</ele>
        <time>2023-07-28T07:19:46Z</time>
      </trkpt>
      <trkpt lat="46.52419" lon="11.84817">
        <ele>2575.3</ele>
        <time>2023-07-28T07:19:48Z</time>
      </trkpt>
      <trkpt lat="46.5242" lon="11.84816">
        <ele>2574.8</ele>
        <time>2023-07-28T07:19:49Z</time>
      </trkpt>
      <trkpt lat="46.52421" lon="11.84815">
        <ele>2574.7</ele>
        <time>2023-07-28T07:19:50Z</time>
      </trkpt>
      <trkpt lat="46.52422" lon="11.84814">
        <ele>2574.7</ele>
        <time>2023-07-28T07:19:51Z</time>
      </trkpt>
      <trkpt lat="46.52422" lon="11.84812">
        <ele>2575.1</ele>
        <time>2023-07-28T07:19:52Z</time>
      </trkpt>
      <trkpt lat="46.52423" lon="11.8481">
        <ele>2574.7</ele>
        <time>2023-07-28T07:19:54Z</time>
      </trkpt>
      <trkpt lat="46.52424" lon="11.84808">
        <ele>2574.5</ele>
        <time>2023-07-28T07:19:55Z</time>
      </trkpt>
      <trkpt lat="46.52424" lon="11.84807">
        <ele>2574</ele>
        <time>2023-07-28T07:19:56Z</time>
      </trkpt>
      <trkpt lat="46.52425" lon="11.84806">
        <ele>2573.1</ele>
        <time>2023-07-28T07:19:57Z</time>
      </trkpt>
      <trkpt lat="46.52426" lon="11.84804">
        <ele>2573</ele>
        <time>2023-07-28T07:19:58Z</time>
      </trkpt>
      <trkpt lat="46.52427" lon="11.84803">
        <ele>2572.2</ele>
        <time>2023-07-28T07:19:59Z</time>
      </trkpt>
      <trkpt lat="46.52428" lon="11.84803">
        <ele>2571.1</ele>
        <time>2023-07-28T07:20:00Z</time>
      </trkpt>
      <trkpt lat="46.52429" lon="11.84802">
        <ele>2570.7</ele>
        <time>2023-07-28T07:20:01Z</time>
      </trkpt>
      <trkpt lat="46.5243" lon="11.84801">
        <ele>2569.4</ele>
        <time>2023-07-28T07:20:03Z</time>
      </trkpt>
      <trkpt lat="46.52431" lon="11.848">
        <ele>2568.6</ele>
        <time>2023-07-28T07:20:04Z</time>
      </trkpt>
      <trkpt lat="46.52431" lon="11.84799">
        <ele>2568.1</ele>
        <time>2023-07-28T07:20:05Z</time>
      </trkpt>
      <trkpt lat="46.52433" lon="11.84797">
        <ele>2565</ele>
        <time>2023-07-28T07:20:07Z</time>
      </trkpt>
      <trkpt lat="46.52433" lon="11.84795">
        <ele>2564.1</ele>
        <time>2023-07-28T07:20:09Z</time>
      </trkpt>
      <trkpt lat="46.52434" lon="11.84793">
        <ele>2563.6</ele>
        <time>2023-07-28T07:20:10Z</time>
      </trkpt>
      <trkpt lat="46.52435" lon="11.84791">
        <ele>2563.7</ele>
        <time>2023-07-28T07:20:11Z</time>
      </trkpt>
      <trkpt lat="46.52435" lon="11.84789">
        <ele>2564.4</ele>
        <time>2023-07-28T07:20:12Z</time>
      </trkpt>
      <trkpt lat="46.52435" lon="11.84788">
        <ele>2564.8</ele>
        <time>2023-07-28T07:20:13Z</time>
      </trkpt>
      <trkpt lat="46.52435" lon="11.84786">
        <ele>2565.1</ele>
        <time>2023-07-28T07:20:14Z</time>
      </trkpt>
      <trkpt lat="46.52435" lon="11.84785">
        <ele>2565.2</ele>
        <time>2023-07-28T07:20:15Z</time>
      </trkpt>
      <trkpt lat="46.52436" lon="11.84783">
        <ele>2565.6</ele>
        <time>2023-07-28T07:20:16Z</time>
      </trkpt>
      <trkpt lat="46.52436" lon="11.84782">
        <ele>2566</ele>
        <time>2023-07-28T07:20:17Z</time>
      </trkpt>
      <trkpt lat="46.52436" lon="11.8478">
        <ele>2566.3</ele>
        <time>2023-07-28T07:20:18Z</time>
      </trkpt>
      <trkpt lat="46.52436" lon="11.84779">
        <ele>2566.4</ele>
        <time>2023-07-28T07:20:19Z</time>
      </trkpt>
      <trkpt lat="46.52437" lon="11.84776">
        <ele>2567</ele>
        <time>2023-07-28T07:20:21Z</time>
      </trkpt>
      <trkpt lat="46.52437" lon="11.84775">
        <ele>2567.7</ele>
        <time>2023-07-28T07:20:23Z</time>
      </trkpt>
      <trkpt lat="46.52439" lon="11.84774">
        <ele>2567.9</ele>
        <time>2023-07-28T07:20:25Z</time>
      </trkpt>
      <trkpt lat="46.5244" lon="11.84773">
        <ele>2568.3</ele>
        <time>2023-07-28T07:20:26Z</time>
      </trkpt>
      <trkpt lat="46.52441" lon="11.84773">
        <ele>2568.2</ele>
        <time>2023-07-28T07:20:27Z</time>
      </trkpt>
      <trkpt lat="46.52442" lon="11.84772">
        <ele>2568.3</ele>
        <time>2023-07-28T07:20:28Z</time>
      </trkpt>
      <trkpt lat="46.52443" lon="11.84771">
        <ele>2568.5</ele>
        <time>2023-07-28T07:20:29Z</time>
      </trkpt>
      <trkpt lat="46.52445" lon="11.84769">
        <ele>2568.7</ele>
        <time>2023-07-28T07:20:31Z</time>
      </trkpt>
      <trkpt lat="46.52445" lon="11.84768">
        <ele>2568.6</ele>
        <time>2023-07-28T07:20:32Z</time>
      </trkpt>
      <trkpt lat="46.52446" lon="11.84767">
        <ele>2568.4</ele>
        <time>2023-07-28T07:20:33Z</time>
      </trkpt>
      <trkpt lat="46.52447" lon="11.84766">
        <ele>2568.2</ele>
        <time>2023-07-28T07:20:34Z</time>
      </trkpt>
      <trkpt lat="46.52447" lon="11.84764">
        <ele>2568.5</ele>
        <time>2023-07-28T07:20:36Z</time>
      </trkpt>
      <trkpt lat="46.52449" lon="11.84762">
        <ele>2568.6</ele>
        <time>2023-07-28T07:20:38Z</time>
      </trkpt>
      <trkpt lat="46.5245" lon="11.84761">
        <ele>2568.6</ele>
        <time>2023-07-28T07:20:40Z</time>
      </trkpt>
      <trkpt lat="46.52451" lon="11.8476">
        <ele>2568.8</ele>
        <time>2023-07-28T07:20:41Z</time>
      </trkpt>
      <trkpt lat="46.52452" lon="11.84759">
        <ele>2569</ele>
        <time>2023-07-28T07:20:42Z</time>
      </trkpt>
      <trkpt lat="46.52453" lon="11.84758">
        <ele>2568.9</ele>
        <time>2023-07-28T07:20:45Z</time>
      </trkpt>
      <trkpt lat="46.52455" lon="11.84757">
        <ele>2569.5</ele>
        <time>2023-07-28T07:20:47Z</time>
      </trkpt>
      <trkpt lat="46.52456" lon="11.84756">
        <ele>2570.1</ele>
        <time>2023-07-28T07:20:48Z</time>
      </trkpt>
      <trkpt lat="46.52457" lon="11.84756">
        <ele>2570.1</ele>
        <time>2023-07-28T07:20:49Z</time>
      </trkpt>
      <trkpt lat="46.52458" lon="11.84755">
        <ele>2570.3</ele>
        <time>2023-07-28T07:20:50Z</time>
      </trkpt>
      <trkpt lat="46.5246" lon="11.84755">
        <ele>2570.3</ele>
        <time>2023-07-28T07:20:52Z</time>
      </trkpt>
      <trkpt lat="46.52461" lon="11.84754">
        <ele>2570.4</ele>
        <time>2023-07-28T07:20:53Z</time>
      </trkpt>
      <trkpt lat="46.52462" lon="11.84753">
        <ele>2570.2</ele>
        <time>2023-07-28T07:20:54Z</time>
      </trkpt>
      <trkpt lat="46.52462" lon="11.84751">
        <ele>2570.1</ele>
        <time>2023-07-28T07:20:56Z</time>
      </trkpt>
      <trkpt lat="46.52463" lon="11.84749">
        <ele>2570</ele>
        <time>2023-07-28T07:20:58Z</time>
      </trkpt>
      <trkpt lat="46.52464" lon="11.84748">
        <ele>2569.9</ele>
        <time>2023-07-28T07:20:59Z</time>
      </trkpt>
      <trkpt lat="46.52465" lon="11.84747">
        <ele>2569.8</ele>
        <time>2023-07-28T07:21:00Z</time>
      </trkpt>
      <trkpt lat="46.52466" lon="11.84746">
        <ele>2569.4</ele>
        <time>2023-07-28T07:21:01Z</time>
      </trkpt>
      <trkpt lat="46.52467" lon="11.84745">
        <ele>2569</ele>
        <time>2023-07-28T07:21:02Z</time>
      </trkpt>
      <trkpt lat="46.52468" lon="11.84744">
        <ele>2568.3</ele>
        <time>2023-07-28T07:21:03Z</time>
      </trkpt>
      <trkpt lat="46.52468" lon="11.84742">
        <ele>2568</ele>
        <time>2023-07-28T07:21:04Z</time>
      </trkpt>
      <trkpt lat="46.52469" lon="11.84741">
        <ele>2567.5</ele>
        <time>2023-07-28T07:21:05Z</time>
      </trkpt>
      <trkpt lat="46.52469" lon="11.84739">
        <ele>2566.9</ele>
        <time>2023-07-28T07:21:07Z</time>
      </trkpt>
      <trkpt lat="46.5247" lon="11.84737">
        <ele>2566.5</ele>
        <time>2023-07-28T07:21:10Z</time>
      </trkpt>
      <trkpt lat="46.5247" lon="11.84736">
        <ele>2566.6</ele>
        <time>2023-07-28T07:21:11Z</time>
      </trkpt>
      <trkpt lat="46.52471" lon="11.84733">
        <ele>2566.9</ele>
        <time>2023-07-28T07:21:13Z</time>
      </trkpt>
      <trkpt lat="46.52472" lon="11.84732">
        <ele>2567.4</ele>
        <time>2023-07-28T07:21:14Z</time>
      </trkpt>
      <trkpt lat="46.52472" lon="11.8473">
        <ele>2567.8</ele>
        <time>2023-07-28T07:21:15Z</time>
      </trkpt>
      <trkpt lat="46.52473" lon="11.84729">
        <ele>2568.5</ele>
        <time>2023-07-28T07:21:16Z</time>
      </trkpt>
      <trkpt lat="46.52474" lon="11.84728">
        <ele>2569</ele>
        <time>2023-07-28T07:21:17Z</time>
      </trkpt>
      <trkpt lat="46.52474" lon="11.84727">
        <ele>2570.2</ele>
        <time>2023-07-28T07:21:19Z</time>
      </trkpt>
      <trkpt lat="46.52475" lon="11.84725">
        <ele>2571</ele>
        <time>2023-07-28T07:21:21Z</time>
      </trkpt>
      <trkpt lat="46.52476" lon="11.84724">
        <ele>2572.1</ele>
        <time>2023-07-28T07:21:23Z</time>
      </trkpt>
      <trkpt lat="46.52477" lon="11.84723">
        <ele>2572.6</ele>
        <time>2023-07-28T07:21:25Z</time>
      </trkpt>
      <trkpt lat="46.52478" lon="11.84722">
        <ele>2573.1</ele>
        <time>2023-07-28T07:21:27Z</time>
      </trkpt>
      <trkpt lat="46.52479" lon="11.84721">
        <ele>2574.1</ele>
        <time>2023-07-28T07:21:29Z</time>
      </trkpt>
      <trkpt lat="46.52479" lon="11.8472">
        <ele>2574.9</ele>
        <time>2023-07-28T07:21:31Z</time>
      </trkpt>
      <trkpt lat="46.5248" lon="11.84718">
        <ele>2575.6</ele>
        <time>2023-07-28T07:21:33Z</time>
      </trkpt>
      <trkpt lat="46.52481" lon="11.84717">
        <ele>2576.2</ele>
        <time>2023-07-28T07:21:35Z</time>
      </trkpt>
      <trkpt lat="46.52483" lon="11.84716">
        <ele>2576.7</ele>
        <time>2023-07-28T07:21:37Z</time>
      </trkpt>
      <trkpt lat="46.52483" lon="11.84715">
        <ele>2577.4</ele>
        <time>2023-07-28T07:21:38Z</time>
      </trkpt>
      <trkpt lat="46.52484" lon="11.84714">
        <ele>2578.5</ele>
        <time>2023-07-28T07:21:40Z</time>
      </trkpt>
      <trkpt lat="46.52486" lon="11.84713">
        <ele>2578.8</ele>
        <time>2023-07-28T07:21:42Z</time>
      </trkpt>
      <trkpt lat="46.52488" lon="11.84712">
        <ele>2580</ele>
        <time>2023-07-28T07:21:44Z</time>
      </trkpt>
      <trkpt lat="46.52489" lon="11.84711">
        <ele>2580.6</ele>
        <time>2023-07-28T07:21:45Z</time>
      </trkpt>
      <trkpt lat="46.52491" lon="11.8471">
        <ele>2581.7</ele>
        <time>2023-07-28T07:21:47Z</time>
      </trkpt>
      <trkpt lat="46.52492" lon="11.8471">
        <ele>2581.9</ele>
        <time>2023-07-28T07:21:48Z</time>
      </trkpt>
      <trkpt lat="46.52493" lon="11.8471">
        <ele>2582</ele>
        <time>2023-07-28T07:21:50Z</time>
      </trkpt>
      <trkpt lat="46.52494" lon="11.84709">
        <ele>2581.6</ele>
        <time>2023-07-28T07:21:52Z</time>
      </trkpt>
      <trkpt lat="46.52495" lon="11.8471">
        <ele>2581.9</ele>
        <time>2023-07-28T07:21:54Z</time>
      </trkpt>
      <trkpt lat="46.52496" lon="11.8471">
        <ele>2581.2</ele>
        <time>2023-07-28T07:21:56Z</time>
      </trkpt>
      <trkpt lat="46.52497" lon="11.84709">
        <ele>2581</ele>
        <time>2023-07-28T07:21:57Z</time>
      </trkpt>
      <trkpt lat="46.52499" lon="11.84709">
        <ele>2580.7</ele>
        <time>2023-07-28T07:21:58Z</time>
      </trkpt>
      <trkpt lat="46.525" lon="11.8471">
        <ele>2580.5</ele>
        <time>2023-07-28T07:22:00Z</time>
      </trkpt>
      <trkpt lat="46.52502" lon="11.84712">
        <ele>2580.5</ele>
        <time>2023-07-28T07:22:02Z</time>
      </trkpt>
      <trkpt lat="46.52503" lon="11.84713">
        <ele>2580.5</ele>
        <time>2023-07-28T07:22:03Z</time>
      </trkpt>
      <trkpt lat="46.52504" lon="11.84714">
        <ele>2580.6</ele>
        <time>2023-07-28T07:22:04Z</time>
      </trkpt>
      <trkpt lat="46.52505" lon="11.84716">
        <ele>2580.7</ele>
        <time>2023-07-28T07:22:05Z</time>
      </trkpt>
      <trkpt lat="46.52507" lon="11.84717">
        <ele>2581</ele>
        <time>2023-07-28T07:22:06Z</time>
      </trkpt>
      <trkpt lat="46.52508" lon="11.84718">
        <ele>2581.4</ele>
        <time>2023-07-28T07:22:07Z</time>
      </trkpt>
      <trkpt lat="46.52508" lon="11.84718">
        <ele>2581.7</ele>
        <time>2023-07-28T07:22:08Z</time>
      </trkpt>
      <trkpt lat="46.5251" lon="11.84719">
        <ele>2582.2</ele>
        <time>2023-07-28T07:22:09Z</time>
      </trkpt>
      <trkpt lat="46.52511" lon="11.8472">
        <ele>2582.6</ele>
        <time>2023-07-28T07:22:11Z</time>
      </trkpt>
      <trkpt lat="46.52512" lon="11.84721">
        <ele>2583.1</ele>
        <time>2023-07-28T07:22:13Z</time>
      </trkpt>
      <trkpt lat="46.52514" lon="11.84722">
        <ele>2583.5</ele>
        <time>2023-07-28T07:22:15Z</time>
      </trkpt>
      <trkpt lat="46.52515" lon="11.84722">
        <ele>2583.7</ele>
        <time>2023-07-28T07:22:16Z</time>
      </trkpt>
      <trkpt lat="46.52516" lon="11.84723">
        <ele>2583.6</ele>
        <time>2023-07-28T07:22:17Z</time>
      </trkpt>
      <trkpt lat="46.52517" lon="11.84723">
        <ele>2583.8</ele>
        <time>2023-07-28T07:22:19Z</time>
      </trkpt>
      <trkpt lat="46.52519" lon="11.84723">
        <ele>2583.9</ele>
        <time>2023-07-28T07:22:20Z</time>
      </trkpt>
      <trkpt lat="46.5252" lon="11.84724">
        <ele>2584</ele>
        <time>2023-07-28T07:22:21Z</time>
      </trkpt>
      <trkpt lat="46.5252" lon="11.84724">
        <ele>2584</ele>
        <time>2023-07-28T07:22:22Z</time>
      </trkpt>
      <trkpt lat="46.52521" lon="11.84725">
        <ele>2583.8</ele>
        <time>2023-07-28T07:22:23Z</time>
      </trkpt>
      <trkpt lat="46.52522" lon="11.84725">
        <ele>2583.8</ele>
        <time>2023-07-28T07:22:24Z</time>
      </trkpt>
      <trkpt lat="46.52523" lon="11.84725">
        <ele>2583.8</ele>
        <time>2023-07-28T07:22:25Z</time>
      </trkpt>
      <trkpt lat="46.52525" lon="11.84726">
        <ele>2584.1</ele>
        <time>2023-07-28T07:22:27Z</time>
      </trkpt>
      <trkpt lat="46.52526" lon="11.84726">
        <ele>2584.2</ele>
        <time>2023-07-28T07:22:28Z</time>
      </trkpt>
      <trkpt lat="46.52526" lon="11.84727">
        <ele>2584.4</ele>
        <time>2023-07-28T07:22:29Z</time>
      </trkpt>
      <trkpt lat="46.52527" lon="11.84728">
        <ele>2584.4</ele>
        <time>2023-07-28T07:22:30Z</time>
      </trkpt>
      <trkpt lat="46.52529" lon="11.84729">
        <ele>2584.5</ele>
        <time>2023-07-28T07:22:32Z</time>
      </trkpt>
      <trkpt lat="46.52531" lon="11.8473">
        <ele>2584.6</ele>
        <time>2023-07-28T07:22:34Z</time>
      </trkpt>
      <trkpt lat="46.52532" lon="11.8473">
        <ele>2584.6</ele>
        <time>2023-07-28T07:22:35Z</time>
      </trkpt>
      <trkpt lat="46.52533" lon="11.84731">
        <ele>2584.5</ele>
        <time>2023-07-28T07:22:36Z</time>
      </trkpt>
      <trkpt lat="46.52534" lon="11.84732">
        <ele>2584.2</ele>
        <time>2023-07-28T07:22:38Z</time>
      </trkpt>
      <trkpt lat="46.52535" lon="11.84734">
        <ele>2584</ele>
        <time>2023-07-28T07:22:39Z</time>
      </trkpt>
      <trkpt lat="46.52537" lon="11.84735">
        <ele>2583.7</ele>
        <time>2023-07-28T07:22:41Z</time>
      </trkpt>
      <trkpt lat="46.52539" lon="11.84736">
        <ele>2583.5</ele>
        <time>2023-07-28T07:22:43Z</time>
      </trkpt>
      <trkpt lat="46.52546" lon="11.8475">
        <ele>2557.9</ele>
      </trkpt>
      <trkpt lat="46.52561" lon="11.84764">
        <ele>2565.4</ele>
      </trkpt>
      <trkpt lat="46.52577" lon="11.84781">
        <ele>2567.8</ele>
      </trkpt>
      <trkpt lat="46.526" lon="11.84806">
        <ele>2574.8</ele>
      </trkpt>
      <trkpt lat="46.52628" lon="11.84812">
        <ele>2602.4</ele>
      </trkpt>
      <trkpt lat="46.52651" lon="11.8484">
        <ele>2605.6</ele>
      </trkpt>
      <trkpt lat="46.52662" lon="11.84819">
        <ele>2623.4</ele>
      </trkpt>
      <trkpt lat="46.52656" lon="11.84806">
        <ele>2626.3</ele>
      </trkpt>
      <trkpt lat="46.52688" lon="11.8475">
        <ele>2664.9</ele>
      </trkpt>
      <trkpt lat="46.52695" lon="11.84748">
        <ele>2667.5</ele>
      </trkpt>
      <trkpt lat="46.52692" lon="11.84739">
        <ele>2672.8</ele>
      </trkpt>
      <trkpt lat="46.52709" lon="11.84737">
        <ele>2673.8</ele>
      </trkpt>
      <trkpt lat="46.52705" lon="11.84709">
        <ele>2688.8</ele>
      </trkpt>
      <trkpt lat="46.52702" lon="11.84673">
        <ele>2703.3</ele>
      </trkpt>
      <trkpt lat="46.52687" lon="11.84632">
        <ele>2717.5</ele>
      </trkpt>
      <trkpt lat="46.52676" lon="11.84613">
        <ele>2723.4</ele>
      </trkpt>
      <trkpt lat="46.5267" lon="11.84606">
        <ele>2726.1</ele>
      </trkpt>
      <trkpt lat="46.52664" lon="11.84596">
        <ele>2729.8</ele>
      </trkpt>
      <trkpt lat="46.52664" lon="11.84567">
        <ele>2738.4</ele>
      </trkpt>
      <trkpt lat="46.52667" lon="11.8453">
        <ele>2752.3</ele>
      </trkpt>
      <trkpt lat="46.52679" lon="11.84506">
        <ele>2756.6</ele>
      </trkpt>
      <trkpt lat="46.52693" lon="11.84487">
        <ele>2768.9</ele>
      </trkpt>
      <trkpt lat="46.52698" lon="11.84477">
        <ele>2769.9</ele>
      </trkpt>
      <trkpt lat="46.52707" lon="11.84442">
        <ele>2775.2</ele>
      </trkpt>
      <trkpt lat="46.52701" lon="11.84411">
        <ele>2783.6</ele>
      </trkpt>
      <trkpt lat="46.52706" lon="11.84398">
        <ele>2790.1</ele>
      </trkpt>
      <trkpt lat="46.52716" lon="11.84371">
        <ele>2804.6</ele>
      </trkpt>
      <trkpt lat="46.52702" lon="11.84334">
        <ele>2826.3</ele>
      </trkpt>
      <trkpt lat="46.52714" lon="11.84317">
        <ele>2832.5</ele>
      </trkpt>
      <trkpt lat="46.5272" lon="11.84297">
        <ele>2839.4</ele>
      </trkpt>
      <trkpt lat="46.52743" lon="11.84264">
        <ele>2847.6</ele>
      </trkpt>
      <trkpt lat="46.52754" lon="11.84232">
        <ele>2851.3</ele>
      </trkpt>
      <trkpt lat="46.52756" lon="11.84203">
        <ele>2860.6</ele>
      </trkpt>
      <trkpt lat="46.52768" lon="11.84178">
        <ele>2870.8</ele>
      </trkpt>
      <trkpt lat="46.52786" lon="11.84165">
        <ele>2875.6</ele>
      </trkpt>
      <trkpt lat="46.52793" lon="11.84159">
        <ele>2878.7</ele>
      </trkpt>
      <trkpt lat="46.52794" lon="11.84149">
        <ele>2884.6</ele>
      </trkpt>
      <trkpt lat="46.52816" lon="11.84115">
        <ele>2890.4</ele>
      </trkpt>
      <trkpt lat="46.52766" lon="11.84111">
        <ele>2901.6</ele>
      </trkpt>
      <trkpt lat="46.52757" lon="11.84108">
        <ele>2959.1</ele>
        <time>2023-07-28T08:05:20Z</time>
      </trkpt>
      <trkpt lat="46.52755" lon="11.84107">
        <ele>2958.4</ele>
        <time>2023-07-28T08:05:22Z</time>
      </trkpt>
      <trkpt lat="46.52754" lon="11.84107">
        <ele>2958.2</ele>
        <time>2023-07-28T08:05:24Z</time>
      </trkpt>
      <trkpt lat="46.52753" lon="11.84107">
        <ele>2958.1</ele>
        <time>2023-07-28T08:05:25Z</time>
      </trkpt>
      <trkpt lat="46.52752" lon="11.84106">
        <ele>2958.2</ele>
        <time>2023-07-28T08:05:27Z</time>
      </trkpt>
      <trkpt lat="46.52751" lon="11.84106">
        <ele>2957.6</ele>
        <time>2023-07-28T08:05:29Z</time>
      </trkpt>
      <trkpt lat="46.52749" lon="11.84106">
        <ele>2957</ele>
        <time>2023-07-28T08:05:31Z</time>
      </trkpt>
      <trkpt lat="46.52748" lon="11.84106">
        <ele>2956.7</ele>
        <time>2023-07-28T08:05:32Z</time>
      </trkpt>
      <trkpt lat="46.52746" lon="11.84106">
        <ele>2956.2</ele>
        <time>2023-07-28T08:05:34Z</time>
      </trkpt>
      <trkpt lat="46.52745" lon="11.84106">
        <ele>2955.5</ele>
        <time>2023-07-28T08:05:35Z</time>
      </trkpt>
      <trkpt lat="46.52683" lon="11.84078">
        <ele>2970.9</ele>
        <time>2023-07-28T08:12:42Z</time>
      </trkpt>
      <trkpt lat="46.52677" lon="11.84087">
        <ele>2962</ele>
        <time>2023-07-28T08:12:43Z</time>
      </trkpt>
      <trkpt lat="46.52678" lon="11.84089">
        <ele>2961.1</ele>
        <time>2023-07-28T08:12:44Z</time>
      </trkpt>
      <trkpt lat="46.52679" lon="11.8409">
        <ele>2961.5</ele>
        <time>2023-07-28T08:12:46Z</time>
      </trkpt>
      <trkpt lat="46.52679" lon="11.84092">
        <ele>2962.4</ele>
        <time>2023-07-28T08:12:48Z</time>
      </trkpt>
      <trkpt lat="46.52679" lon="11.84093">
        <ele>2963.1</ele>
        <time>2023-07-28T08:12:49Z</time>
      </trkpt>
      <trkpt lat="46.52676" lon="11.84096">
        <ele>2963.3</ele>
        <time>2023-07-28T08:12:51Z</time>
      </trkpt>
      <trkpt lat="46.52674" lon="11.84096">
        <ele>2963.5</ele>
        <time>2023-07-28T08:12:54Z</time>
      </trkpt>
      <trkpt lat="46.52673" lon="11.84097">
        <ele>2961.7</ele>
        <time>2023-07-28T08:12:56Z</time>
      </trkpt>
      <trkpt lat="46.52672" lon="11.84096">
        <ele>2959</ele>
        <time>2023-07-28T08:13:02Z</time>
      </trkpt>
    </trkseg>
  </trk>
</gpx>